首页
METAR-TAF:

METAR-TAF

机场 :

石勒苏益格-Jagel, 德国

纬度: 54-28N, 经度: 009-31E, 海拔: 22米

当前天气观测

该预报发布于10分钟前的19:20 UTC
风速3节,风向
温度 11°C
湿度 87%
气压 1015 hPa
能見度: 9000

METAR: ETNS 211920Z AUTO 01003KT 9000 // ////// 11/09 Q1015 ///

时间: 21:30 (19:30 UTC)

预报

该预报发布于6小时和1分钟前的13:29 UTC
预报有效从21日的 14点(UTC)到 21日的 23点(UTC)
风速5节,风向西南
能见度10公里或以上
散云层高于35000英尺
成为
从 21日的 15点(UTC)到 21日的 17点(UTC)
风速3节,风向
能见度10公里或以上
少量云层高于30000英尺
短暂存在
从 21日的 18点(UTC)到 21日的 20点(UTC)
风速3节,风向多变
能見度: 3000
少量云层高于30000英尺
浅雾
成为
从 21日的 20点(UTC)到 21日的 22点(UTC)
风速2节,风向多变
能見度: 0500
天空无云

TAF: ETNS 211329Z 2114/2123 22005KT 9999 NSW SCT350 BECMG 2115/2117 09003KT 9999 NSW FEW300 TEMPO 2118/2120 VRB03KT 3000 MIFG FEW300 BECMG 2120/2122 VRB02KT 0500 FG SKC BY ETGL

超过4000个机场的气象观测和天气预报(METAR&TAF报告)。

可查询的气象台以黄色和红色小点在地图上表示。

将鼠标移到小点上方,可查看气象台名称。

然后点击查看天气观测和预报。

如需切换地图:点击带黑十字的绿色按钮放大地图;点击带横线的绿色按钮缩小地图;或者点击绿色箭头查看邻近地区的地图。


METAR-TAF: